Time;durP1;ratioP1;P1;durP2;ratioP2;P2;SDS_P1;SDS_P2;PMS_P1;PMS_P2;Temp;Humidity;BMP_temperature;BMP_pressure;BME280_temperature;BME280_humidity;BME280_pressure;Samples;Min_cycle;Max_cycle;Signal;HPM_P1;HPM_P2
2024/04/10 00:01:40;;;;;;;2.50;0.77;;;14.80;99.90;;;;;;5414736;26;20073;-74
2024/04/10 00:04:06;;;;;;;7.05;1.02;;;14.80;99.90;;;;;;5414943;26;20003;-74
2024/04/10 00:06:32;;;;;;;10.35;0.95;;;14.80;99.90;;;;;;5414862;26;20000;-74
2024/04/10 00:08:57;;;;;;;4.85;1.45;;;14.80;99.90;;;;;;5414668;26;20451;-75
2024/04/10 00:11:25;;;;;;;2.38;1.13;;;14.80;99.90;;;;;;5414615;26;20395;-74
2024/04/10 00:13:51;;;;;;;2.97;0.98;;;14.80;99.90;;;;;;5414777;26;20459;-73
2024/04/10 00:16:17;;;;;;;3.15;0.95;;;14.80;99.90;;;;;;5412919;26;19999;-74
2024/04/10 00:18:43;;;;;;;4.95;1.02;;;14.80;99.90;;;;;;5414559;26;19999;-75
2024/04/10 00:21:09;;;;;;;3.65;1.00;;;14.80;99.90;;;;;;5412801;26;20000;-75
2024/04/10 00:23:35;;;;;;;2.58;1.20;;;14.90;99.90;;;;;;5414529;26;20172;-74
2024/04/10 00:26:02;;;;;;;5.85;1.05;;;14.80;99.90;;;;;;5412720;26;20015;-74
2024/04/10 00:28:29;;;;;;;6.97;1.63;;;14.80;99.90;;;;;;5412557;26;20496;-74
2024/04/10 00:30:56;;;;;;;9.82;1.08;;;14.80;99.90;;;;;;5412354;26;20458;-75
2024/04/10 00:33:21;;;;;;;6.15;1.27;;;14.70;99.90;;;;;;5412535;26;20336;-74
2024/04/10 00:35:57;;;;;;;9.45;0.90;;;14.70;99.90;;;;;;5414476;26;20014;-75
2024/04/10 00:38:23;;;;;;;6.30;1.20;;;14.70;99.90;;;;;;5414577;26;20003;-74
2024/04/10 00:40:53;;;;;;;;;;;14.70;99.90;;;;;;5412707;26;20004;-74
2024/04/10 00:43:19;;;;;;;6.53;0.60;;;14.70;99.90;;;;;;5412424;26;19932;-73
2024/04/10 00:45:53;;;;;;;2.83;1.08;;;14.70;99.90;;;;;;5412085;26;19999;-75
2024/04/10 00:48:19;;;;;;;4.10;1.40;;;14.70;99.90;;;;;;5412428;26;20003;-74
2024/04/10 00:50:46;;;;;;;5.30;1.23;;;14.70;99.90;;;;;;5414275;26;20027;-73
2024/04/10 00:53:12;;;;;;;8.77;1.85;;;14.70;99.90;;;;;;5411972;26;20011;-74
2024/04/10 00:55:39;;;;;;;8.50;1.30;;;14.70;99.90;;;;;;5413996;26;20004;-74
2024/04/10 00:58:05;;;;;;;6.00;1.35;;;14.70;99.90;;;;;;5412067;26;20337;-74
2024/04/10 01:00:31;;;;;;;2.90;0.98;;;14.70;99.90;;;;;;5412065;26;20554;-74
2024/04/10 01:02:57;;;;;;;4.55;1.30;;;14.70;99.90;;;;;;5411581;26;20004;-74
2024/04/10 01:05:23;;;;;;;2.92;0.63;;;14.70;99.90;;;;;;5414121;26;20013;-74
2024/04/10 01:07:49;;;;;;;3.92;1.10;;;14.60;99.90;;;;;;5413627;26;20414;-74
2024/04/10 01:10:14;;;;;;;2.58;1.10;;;14.60;99.90;;;;;;5413588;26;19999;-74
2024/04/10 01:12:43;;;;;;;2.35;0.80;;;14.50;99.90;;;;;;5413859;26;20077;-74
2024/04/10 01:15:09;;;;;;;3.97;1.15;;;14.50;99.90;;;;;;5413311;26;20017;-74
2024/04/10 01:17:35;;;;;;;6.13;1.42;;;14.50;99.90;;;;;;5411665;26;20433;-74
2024/04/10 01:20:05;;;;;;;;;;;14.50;99.90;;;;;;5414201;26;20069;-73
2024/04/10 01:22:31;;;;;;;3.33;1.40;;;14.40;99.90;;;;;;5411971;26;19925;-73
2024/04/10 01:24:56;;;;;;;;;;;14.30;99.90;;;;;;5412408;26;20000;-74
2024/04/10 01:27:22;;;;;;;6.47;1.30;;;14.40;99.90;;;;;;5411568;26;19932;-73
2024/04/10 01:29:48;;;;;;;6.97;1.00;;;14.30;99.90;;;;;;5413224;26;20039;-74
2024/04/10 01:32:13;;;;;;;3.97;1.40;;;14.40;99.90;;;;;;5413300;26;20071;-74
2024/04/10 01:34:39;;;;;;;;;;;14.40;99.90;;;;;;5414082;26;19995;-74
2024/04/10 01:37:05;;;;;;;3.85;1.23;;;14.40;99.90;;;;;;5411650;26;19953;-74
2024/04/10 01:39:30;;;;;;;;;;;14.40;99.90;;;;;;5414041;26;20026;-74
2024/04/10 01:41:56;;;;;;;7.63;1.15;;;14.40;99.90;;;;;;5404102;26;19932;-74
2024/04/10 01:44:21;;;;;;;9.75;1.33;;;14.40;99.90;;;;;;5411368;26;20035;-74
2024/04/10 01:46:47;;;;;;;;;;;14.40;99.90;;;;;;5414017;26;20007;-74
2024/04/10 01:49:13;;;;;;;3.13;1.27;;;14.40;99.90;;;;;;5411376;26;19948;-74
2024/04/10 01:51:39;;;;;;;3.13;1.08;;;14.40;99.90;;;;;;5411231;26;20031;-74
2024/04/10 01:54:05;;;;;;;7.70;0.98;;;14.40;99.90;;;;;;5413387;26;20321;-74
2024/04/10 01:56:30;;;;;;;10.45;1.42;;;14.40;99.90;;;;;;5411110;26;20018;-74
2024/04/10 01:58:56;;;;;;;;;;;14.50;99.90;;;;;;5413644;26;20448;-75
2024/04/10 02:01:22;;;;;;;11.38;1.10;;;14.50;99.90;;;;;;5413993;26;19925;-75
2024/04/10 02:03:48;;;;;;;7.18;1.30;;;14.50;99.90;;;;;;5414466;26;20500;-75
2024/04/10 02:06:14;;;;;;;3.40;0.90;;;14.50;99.90;;;;;;5416322;26;20344;-74
2024/04/10 02:08:40;;;;;;;4.10;1.27;;;14.40;99.90;;;;;;5416335;26;20011;-74
2024/04/10 02:11:26;;;;;;;7.22;1.23;;;14.30;99.90;;;;;;5414465;26;20007;-75
2024/04/10 02:13:52;;;;;;;3.42;1.20;;;14.40;99.90;;;;;;5415991;26;20004;-75
2024/04/10 02:16:19;;;;;;;7.78;1.42;;;14.30;99.90;;;;;;5413953;26;20010;-73
2024/04/10 02:18:44;;;;;;;7.40;1.45;;;14.30;99.90;;;;;;5414544;26;20527;-74
2024/04/10 02:21:10;;;;;;;;;;;14.40;99.90;;;;;;5416395;26;20072;-74
2024/04/10 02:23:35;;;;;;;13.68;1.17;;;14.40;99.90;;;;;;5414211;26;19936;-75
2024/04/10 02:26:08;;;;;;;;;;;14.40;99.90;;;;;;5414986;26;20344;-74
2024/04/10 02:28:34;;;;;;;3.15;0.98;;;14.50;99.90;;;;;;5416152;26;19925;-75
2024/04/10 02:30:59;;;;;;;4.82;1.30;;;14.50;99.90;;;;;;5416140;26;20343;-75
2024/04/10 02:33:26;;;;;;;14.23;1.30;;;14.50;99.90;;;;;;5416036;26;20329;-75
2024/04/10 02:35:51;;;;;;;3.58;1.25;;;14.50;99.90;;;;;;5416183;26;20003;-75
2024/04/10 02:38:17;;;;;;;4.68;1.23;;;14.40;99.90;;;;;;5414252;26;20010;-75
2024/04/10 02:40:43;;;;;;;3.08;0.90;;;14.40;99.90;;;;;;5414418;26;19991;-74
2024/04/10 02:43:08;;;;;;;7.50;1.23;;;14.40;99.90;;;;;;5413994;26;20525;-75
2024/04/10 02:45:34;;;;;;;6.38;1.33;;;14.40;99.90;;;;;;5413949;26;19996;-74
2024/04/10 02:48:03;;;;;;;8.77;1.42;;;14.30;99.90;;;;;;5415736;26;20003;-73
2024/04/10 02:50:28;;;;;;;21.10;1.42;;;14.30;99.90;;;;;;5415595;26;20012;-73
2024/04/10 02:52:54;;;;;;;4.22;0.93;;;14.20;99.90;;;;;;5415734;26;20398;-74
2024/04/10 02:55:19;;;;;;;;;;;14.20;99.90;;;;;;5416324;26;20431;-75
2024/04/10 02:57:45;;;;;;;4.50;1.45;;;14.20;99.90;;;;;;5413912;26;20471;-74
2024/04/10 03:00:11;;;;;;;6.28;1.42;;;14.10;99.90;;;;;;5415615;26;20343;-75
2024/04/10 03:02:37;;;;;;;5.28;1.35;;;14.10;99.90;;;;;;5413927;26;20336;-74
2024/04/10 03:05:05;;;;;;;4.13;1.08;;;14.10;99.90;;;;;;5413748;26;20005;-75
2024/04/10 03:07:30;;;;;;;15.82;1.48;;;14.10;99.90;;;;;;5415503;26;20085;-75
2024/04/10 03:09:57;;;;;;;5.20;1.30;;;14.00;99.90;;;;;;5415568;26;20015;-74
2024/04/10 03:12:23;;;;;;;6.45;1.40;;;14.00;99.90;;;;;;5414174;26;20000;-75
2024/04/10 03:14:48;;;;;;;6.55;1.30;;;13.90;99.90;;;;;;5413588;26;20050;-75
2024/04/10 03:17:16;;;;;;;;;;;13.90;99.90;;;;;;5414335;26;20003;-74
2024/04/10 03:19:42;;;;;;;4.97;1.75;;;13.90;99.90;;;;;;5413603;26;19924;-75
2024/04/10 03:22:10;;;;;;;;;;;13.90;99.90;;;;;;5416310;26;19996;-75
2024/04/10 03:24:37;;;;;;;5.70;1.50;;;13.90;99.90;;;;;;5415511;26;19924;-74
2024/04/10 03:27:02;;;;;;;;;;;13.90;99.90;;;;;;5414089;26;20004;-76
2024/04/10 03:29:28;;;;;;;11.07;1.75;;;13.80;99.90;;;;;;5413472;26;19936;-76
2024/04/10 03:31:54;;;;;;;;;;;13.80;99.90;;;;;;5415902;26;19999;-74
2024/04/10 03:34:19;;;;;;;6.07;1.38;;;13.70;99.90;;;;;;5413410;26;19936;-75
2024/04/10 03:36:45;;;;;;;;;;;13.70;99.90;;;;;;5414094;26;20016;-75
2024/04/10 03:39:11;;;;;;;5.75;1.60;;;13.60;99.90;;;;;;5415380;26;19925;-72
2024/04/10 03:41:37;;;;;;;7.57;1.20;;;13.60;99.90;;;;;;5413506;26;20027;-75
2024/04/10 03:44:05;;;;;;;3.22;1.25;;;13.50;99.90;;;;;;5413562;26;20422;-73
2024/04/10 03:46:32;;;;;;;3.13;1.30;;;13.50;99.90;;;;;;5413395;26;20000;-75
2024/04/10 03:48:58;;;;;;;9.32;1.63;;;13.50;99.90;;;;;;5415312;26;20011;-74
2024/04/10 03:51:24;;;;;;;;;;;13.50;99.90;;;;;;5415462;26;20003;-75
2024/04/10 03:53:49;;;;;;;5.70;1.30;;;13.50;99.90;;;;;;5414716;26;19925;-74
2024/04/10 03:56:15;;;;;;;4.03;1.52;;;13.50;99.90;;;;;;5414638;26;20003;-75
2024/04/10 03:58:41;;;;;;;;;;;13.50;99.90;;;;;;5413763;26;20072;-75
2024/04/10 04:01:07;;;;;;;6.13;1.83;;;13.50;99.90;;;;;;5414625;26;19924;-75
2024/04/10 04:03:33;;;;;;;6.03;1.20;;;13.50;99.90;;;;;;5414722;26;19999;-74
2024/04/10 04:06:00;;;;;;;4.75;1.20;;;13.50;99.90;;;;;;5412896;26;20003;-75
2024/04/10 04:08:27;;;;;;;7.35;1.40;;;13.50;99.90;;;;;;5414670;26;20013;-74
2024/04/10 04:10:55;;;;;;;3.67;0.98;;;13.60;99.90;;;;;;5414982;26;20014;-74
2024/04/10 04:13:21;;;;;;;3.65;0.82;;;13.60;99.90;;;;;;5412945;26;20539;-75
2024/04/10 04:15:48;;;;;;;;;;;13.60;99.90;;;;;;5413301;26;20014;-75
2024/04/10 04:18:14;;;;;;;12.52;1.63;;;13.60;99.90;;;;;;5414660;26;19925;-74
2024/04/10 04:20:40;;;;;;;3.70;1.00;;;13.60;99.90;;;;;;5414252;26;20031;-75
2024/04/10 04:23:06;;;;;;;4.95;1.50;;;13.60;99.90;;;;;;5412405;26;20329;-74
2024/04/10 04:25:33;;;;;;;;;;;13.70;99.90;;;;;;5414826;26;20011;-74
2024/04/10 04:27:59;;;;;;;7.10;1.63;;;13.70;99.90;;;;;;5412796;26;19925;-74
2024/04/10 04:30:24;;;;;;;4.72;1.40;;;13.70;99.90;;;;;;5412301;26;20645;-75
2024/04/10 04:32:50;;;;;;;;;;;13.80;99.90;;;;;;5412593;26;20019;-75
2024/04/10 04:35:16;;;;;;;7.57;1.75;;;13.80;99.90;;;;;;5412365;26;19924;-74
2024/04/10 04:37:45;;;;;;;6.43;1.70;;;13.90;99.90;;;;;;5414280;26;20490;-75
2024/04/10 04:40:11;;;;;;;5.22;1.55;;;14.00;99.90;;;;;;5412227;26;20031;-75
2024/04/10 04:42:37;;;;;;;;;;;14.10;99.90;;;;;;5414708;26;20448;-74
2024/04/10 04:45:03;;;;;;;10.73;1.77;;;14.30;99.90;;;;;;5412205;26;19936;-74
2024/04/10 04:47:29;;;;;;;9.27;2.10;;;14.40;99.90;;;;;;5413990;26;20097;-75
2024/04/10 04:49:55;;;;;;;6.22;1.52;;;14.60;99.90;;;;;;5413931;26;20437;-75
2024/04/10 04:52:20;;;;;;;5.22;1.52;;;14.80;99.90;;;;;;5412016;26;20045;-75
2024/04/10 04:54:46;;;;;;;9.52;1.83;;;15.00;99.90;;;;;;5414104;26;20692;-75
2024/04/10 04:57:12;;;;;;;3.65;1.65;;;15.10;99.90;;;;;;5411937;26;20007;-75
2024/04/10 04:59:39;;;;;;;6.13;2.45;;;15.30;99.90;;;;;;5412088;26;20004;-75
2024/04/10 05:02:06;;;;;;;6.53;1.60;;;15.70;99.90;;;;;;5413977;26;20003;-75
2024/04/10 05:07:16;;;;;;;11.00;1.48;;;16.20;99.90;;;;;;5413709;26;20081;-74
2024/04/10 05:09:49;;;;;;;16.15;1.75;;;16.50;99.90;;;;;;5411779;26;20823;-75
2024/04/10 05:12:14;;;;;;;4.07;1.25;;;16.70;99.90;;;;;;5414121;26;19999;-75
2024/04/10 05:14:40;;;;;;;5.32;1.73;;;16.90;99.90;;;;;;5413707;26;20360;-75
2024/04/10 05:17:06;;;;;;;7.43;1.27;;;17.20;99.90;;;;;;5413712;26;20008;-76
2024/04/10 05:19:31;;;;;;;17.05;2.13;;;17.60;99.90;;;;;;5411877;26;20000;-75
2024/04/10 05:21:57;;;;;;;10.23;1.92;;;18.10;99.90;;;;;;5411947;26;20165;-75
2024/04/10 05:24:23;;;;;;;10.52;2.15;;;18.60;99.30;;;;;;5413603;26;20003;-75
2024/04/10 05:26:49;;;;;;;11.27;1.65;;;19.00;97.60;;;;;;5411694;26;20028;-75
2024/04/10 05:29:15;;;;;;;10.20;1.55;;;19.50;96.10;;;;;;5411923;26;20015;-75
2024/04/10 05:31:42;;;;;;;7.45;1.48;;;19.70;95.00;;;;;;5413662;26;20000;-75
2024/04/10 05:34:07;;;;;;;4.90;1.52;;;20.00;94.00;;;;;;5412956;26;20004;-75
2024/04/10 05:36:33;;;;;;;12.43;2.08;;;20.20;93.30;;;;;;5413245;26;20008;-74
2024/04/10 05:39:00;;;;;;;8.27;2.20;;;20.60;91.70;;;;;;5411319;26;20436;-74
2024/04/10 05:41:26;;;;;;;7.43;2.03;;;20.80;90.50;;;;;;5413290;26;20015;-75
2024/04/10 05:43:51;;;;;;;11.25;2.08;;;21.00;90.20;;;;;;5413185;26;20015;-74
2024/04/10 05:46:17;;;;;;;14.32;2.33;;;21.20;88.30;;;;;;5413154;26;20333;-75
2024/04/10 05:48:43;;;;;;;11.77;3.90;;;21.40;88.30;;;;;;5411188;26;20459;-75
2024/04/10 05:51:09;;;;;;;8.05;3.08;;;21.90;86.20;;;;;;5412982;26;20089;-75
2024/04/10 05:53:34;;;;;;;15.02;1.92;;;22.50;81.90;;;;;;5412724;26;19996;-75
2024/04/10 05:56:04;;;;;;;8.48;2.05;;;23.10;77.90;;;;;;5411085;26;20000;-75
2024/04/10 05:58:31;;;;;;;15.80;2.53;;;23.70;74.60;;;;;;5410952;26;19995;-75
2024/04/10 06:00:56;;;;;;;10.48;1.80;;;24.10;72.10;;;;;;5412919;26;20325;-75
2024/04/10 06:03:22;;;;;;;9.10;1.52;;;24.30;69.80;;;;;;5412840;26;20019;-75
2024/04/10 06:05:48;;;;;;;4.50;1.73;;;24.70;67.10;;;;;;5412903;26;20425;-75
2024/04/10 06:08:14;;;;;;;13.80;2.25;;;24.90;62.40;;;;;;5412931;26;20000;-76
2024/04/10 06:10:39;;;;;;;4.40;1.73;;;25.20;60.80;;;;;;5410950;26;20012;-75
2024/04/10 06:13:05;;;;;;;5.90;1.40;;;25.60;58.70;;;;;;5412584;26;20445;-75
2024/04/10 06:15:30;;;;;;;9.98;2.05;;;25.70;57.30;;;;;;5410719;26;19995;-76
2024/04/10 06:17:57;;;;;;;12.07;1.60;;;25.80;56.10;;;;;;5412764;26;20014;-75
2024/04/10 06:20:23;;;;;;;12.52;2.05;;;25.80;55.90;;;;;;5412735;26;20004;-75
2024/04/10 06:22:48;;;;;;;14.00;2.53;;;25.90;55.10;;;;;;5412638;26;20476;-75
2024/04/10 06:25:14;;;;;;;9.98;1.67;;;25.90;54.50;;;;;;5412563;26;20015;-75
2024/04/10 06:27:40;;;;;;;8.52;1.80;;;26.00;54.40;;;;;;5412699;26;20014;-75
2024/04/10 06:30:07;;;;;;;14.23;2.15;;;26.20;53.60;;;;;;5412681;26;20453;-76
2024/04/10 06:32:32;;;;;;;10.77;1.75;;;26.50;52.40;;;;;;5410809;26;20003;-72
2024/04/10 06:34:58;;;;;;;7.90;2.00;;;26.60;52.00;;;;;;5412694;26;20006;-73
2024/04/10 06:37:24;;;;;;;4.68;1.90;;;26.70;52.20;;;;;;5410514;26;20010;-73
2024/04/10 06:39:52;;;;;;;9.27;1.70;;;26.60;52.80;;;;;;5410344;26;20012;-75
2024/04/10 06:42:18;;;;;;;10.55;1.88;;;26.80;52.50;;;;;;5412309;26;20003;-75
2024/04/10 06:44:43;;;;;;;8.57;2.35;;;27.00;52.30;;;;;;5412192;26;20106;-75
2024/04/10 06:47:09;;;;;;;13.43;2.55;;;26.80;52.10;;;;;;5414973;26;20009;-75
2024/04/10 06:49:35;;;;;;;11.35;2.08;;;26.90;52.30;;;;;;5415877;26;20036;-74
2024/04/10 06:52:00;;;;;;;16.30;2.08;;;26.90;52.00;;;;;;5416000;26;19995;-73
2024/04/10 06:54:26;;;;;;;12.95;2.53;;;27.00;51.70;;;;;;5415848;26;20003;-73
2024/04/10 06:56:52;;;;;;;11.20;2.13;;;27.20;51.50;;;;;;5414018;26;20000;-73
2024/04/10 06:59:18;;;;;;;11.27;2.42;;;27.10;51.20;;;;;;5415775;26;20531;-73
2024/04/10 07:01:44;;;;;;;7.97;2.08;;;27.40;50.60;;;;;;5413902;26;20004;-75
2024/04/10 07:04:09;;;;;;;10.50;2.38;;;27.60;49.80;;;;;;5415451;26;20044;-76
2024/04/10 07:06:35;;;;;;;13.88;2.47;;;27.70;49.90;;;;;;5415702;26;20091;-76
2024/04/10 07:09:01;;;;;;;12.57;2.85;;;27.90;48.90;;;;;;5414059;26;20004;-76
2024/04/10 07:11:26;;;;;;;5.90;2.80;;;28.20;48.10;;;;;;5415681;26;19999;-76
2024/04/10 07:13:53;;;;;;;11.55;2.22;;;28.30;47.20;;;;;;5415444;26;20000;-75
2024/04/10 07:16:30;;;;;;;16.17;2.20;;;28.30;47.10;;;;;;5413799;26;20000;-75
2024/04/10 07:18:56;;;;;;;9.48;2.42;;;28.50;47.10;;;;;;5415913;26;19999;-76
2024/04/10 07:21:22;;;;;;;8.98;2.45;;;28.90;46.90;;;;;;5413930;26;20004;-77
2024/04/10 07:23:49;;;;;;;11.52;2.30;;;29.30;46.50;;;;;;5415608;26;20000;-76
2024/04/10 07:26:16;;;;;;;10.18;1.98;;;29.40;44.80;;;;;;5415695;26;19999;-76
2024/04/10 07:28:43;;;;;;;9.63;2.00;;;29.70;43.40;;;;;;5415675;26;20014;-75
2024/04/10 07:31:10;;;;;;;11.50;2.00;;;29.70;43.10;;;;;;5413397;26;20012;-73
2024/04/10 07:33:37;;;;;;;10.07;2.38;;;29.80;43.20;;;;;;5415384;26;20010;-73
2024/04/10 07:36:14;;;;;;;10.68;2.53;;;29.80;43.30;;;;;;5415587;26;20007;-74
2024/04/10 07:38:41;;;;;;;6.40;2.08;;;29.70;43.10;;;;;;5413210;26;20344;-76
2024/04/10 07:41:07;;;;;;;6.18;2.13;;;30.00;43.10;;;;;;5415006;26;20003;-73
2024/04/10 07:43:34;;;;;;;7.40;1.63;;;30.50;42.60;;;;;;5415260;26;20004;-73
2024/04/10 07:46:10;;;;;;;16.75;2.08;;;30.90;42.10;;;;;;5415138;26;20072;-73
2024/04/10 07:48:37;;;;;;;6.85;1.95;;;31.20;40.40;;;;;;5415020;26;20010;-73
2024/04/10 07:51:10;;;;;;;11.95;2.28;;;31.00;40.90;;;;;;5412905;26;20000;-73
2024/04/10 07:53:41;;;;;;;7.43;1.67;;;31.30;40.70;;;;;;5413094;26;20003;-75
2024/04/10 07:56:07;;;;;;;15.48;2.05;;;31.30;39.80;;;;;;5414963;26;20000;-73
2024/04/10 07:58:34;;;;;;;12.02;1.90;;;31.30;39.60;;;;;;5414174;26;19999;-74
2024/04/10 08:01:00;;;;;;;7.70;2.30;;;31.40;39.50;;;;;;5412957;26;20003;-74
2024/04/10 08:03:30;;;;;;;15.48;2.25;;;31.50;39.00;;;;;;5414956;26;20424;-72
2024/04/10 08:06:01;;;;;;;11.38;2.30;;;32.00;38.60;;;;;;5413006;26;20011;-74
2024/04/10 08:08:27;;;;;;;13.70;2.35;;;32.30;38.00;;;;;;5412893;26;20072;-74
2024/04/10 08:11:13;;;;;;;10.75;2.75;;;32.70;37.80;;;;;;5414905;26;20004;-75
2024/04/10 08:13:40;;;;;;;8.70;2.22;;;33.10;36.40;;;;;;5414542;26;20072;-75
2024/04/10 08:16:08;;;;;;;12.23;2.47;;;33.20;35.40;;;;;;5412740;26;20015;-76
2024/04/10 08:18:38;;;;;;;8.38;2.60;;;33.00;35.70;;;;;;5412681;26;20100;-73
2024/04/10 08:21:23;;;;;;;11.13;2.00;;;32.90;36.70;;;;;;5412616;26;20776;-75
2024/04/10 08:23:49;;;;;;;10.00;2.72;;;33.20;36.30;;;;;;5414363;26;20018;-75
2024/04/10 08:26:16;;;;;;;10.95;2.38;;;33.20;35.30;;;;;;5414564;26;20429;-75
2024/04/10 08:28:50;;;;;;;20.30;2.50;;;32.90;35.70;;;;;;5414408;26;20407;-73
2024/04/10 08:31:17;;;;;;;9.70;2.10;;;32.60;36.20;;;;;;5414353;26;19996;-73
2024/04/10 08:33:47;;;;;;;16.90;2.65;;;32.40;37.00;;;;;;5414263;26;20011;-74
2024/04/10 08:36:13;;;;;;;12.18;1.80;;;32.70;36.60;;;;;;5414140;26;20471;-73
2024/04/10 08:38:44;;;;;;;12.52;3.03;;;32.70;35.00;;;;;;5414315;26;20462;-73
2024/04/10 08:41:14;;;;;;;15.88;2.33;;;32.90;35.70;;;;;;5414074;26;20000;-73
2024/04/10 08:43:44;;;;;;;14.65;2.20;;;33.20;35.00;;;;;;5414264;26;20003;-76
2024/04/10 08:46:10;;;;;;;13.80;2.33;;;33.40;34.60;;;;;;5412320;26;20072;-76
2024/04/10 08:48:39;;;;;;;9.02;2.80;;;33.40;34.00;;;;;;5412268;26;20008;-76
2024/04/10 08:51:09;;;;;;;13.02;2.05;;;32.90;34.10;;;;;;5413893;26;20000;-76
2024/04/10 08:53:38;;;;;;;11.43;2.33;;;32.90;35.80;;;;;;5414422;26;20011;-76
2024/04/10 08:56:04;;;;;;;7.70;2.25;;;33.20;34.90;;;;;;5412555;26;20003;-76
2024/04/10 08:58:30;;;;;;;11.77;3.05;;;33.30;35.70;;;;;;5414095;26;20376;-76
2024/04/10 09:00:55;;;;;;;11.63;2.30;;;33.10;35.40;;;;;;5413932;26;20014;-75
2024/04/10 09:03:22;;;;;;;5.45;2.00;;;32.90;36.40;;;;;;5413976;26;20007;-76
2024/04/10 09:05:47;;;;;;;11.88;2.08;;;33.00;36.30;;;;;;5412049;26;20350;-76
2024/04/10 09:08:13;;;;;;;14.75;2.78;;;33.10;36.10;;;;;;5413702;26;20003;-76
2024/04/10 09:10:39;;;;;;;9.13;2.47;;;32.90;36.30;;;;;;5410518;26;20008;-76
2024/04/10 09:13:09;;;;;;;11.48;2.50;;;32.80;36.80;;;;;;5411744;26;19996;-75
2024/04/10 09:15:38;;;;;;;7.93;2.13;;;33.10;37.00;;;;;;5413647;26;20000;-76
2024/04/10 09:18:07;;;;;;;5.65;2.20;;;32.90;37.00;;;;;;5413204;26;20106;-75
2024/04/10 09:20:33;;;;;;;23.00;3.45;;;32.50;37.30;;;;;;5382977;26;20016;-76
2024/04/10 09:23:04;;;;;;;9.25;2.45;;;32.70;37.50;;;;;;5413560;26;20522;-76
2024/04/10 09:25:34;;;;;;;13.38;1.85;;;32.50;36.60;;;;;;5413536;26;20451;-75
2024/04/10 09:28:05;;;;;;;8.52;1.63;;;32.60;37.80;;;;;;5411867;26;19999;-76
2024/04/10 09:31:51;;;;;;;13.25;2.20;;;32.80;37.40;;;;;;5504063;25;21040;-76
2024/04/10 09:34:20;;;;;;;16.33;1.80;;;32.50;37.70;;;;;;5504671;25;20025;-76
2024/04/10 09:36:46;;;;;;;7.95;1.60;;;32.40;37.20;;;;;;5504717;25;20013;-76
2024/04/10 09:39:13;;;;;;;6.68;2.08;;;32.30;37.80;;;;;;5502683;26;19998;-76
2024/04/10 09:41:44;;;;;;;8.13;1.80;;;32.40;37.10;;;;;;5504702;25;20012;-74
2024/04/10 09:44:11;;;;;;;14.98;2.20;;;32.30;37.00;;;;;;5504578;25;19998;-76
2024/04/10 09:46:38;;;;;;;11.40;2.15;;;32.20;36.80;;;;;;5504690;25;20016;-76
2024/04/10 09:49:10;;;;;;;13.15;2.03;;;32.30;37.30;;;;;;5504465;25;19994;-77
2024/04/10 09:51:39;;;;;;;8.82;1.85;;;32.20;37.10;;;;;;5502290;26;20053;-74
2024/04/10 09:54:10;;;;;;;10.65;1.80;;;32.50;36.50;;;;;;5504265;25;19990;-74
2024/04/10 09:56:37;;;;;;;8.73;1.75;;;32.70;36.30;;;;;;5502305;26;20014;-76
2024/04/10 09:59:09;;;;;;;16.08;2.28;;;32.70;36.30;;;;;;5502085;26;20518;-76
2024/04/10 10:01:37;;;;;;;17.92;1.80;;;32.80;35.60;;;;;;5502278;26;20002;-77
2024/04/10 10:04:02;;;;;;;9.82;1.60;;;32.90;36.10;;;;;;5502277;25;20002;-76
2024/04/10 10:06:31;;;;;;;13.27;1.40;;;33.10;35.60;;;;;;5502200;25;20013;-76
2024/04/10 10:08:58;;;;;;;4.50;1.20;;;33.30;34.80;;;;;;5503999;25;20479;-76
2024/04/10 10:11:24;;;;;;;6.07;1.27;;;33.30;34.80;;;;;;5503950;25;20471;-76
2024/04/10 10:13:57;;;;;;;4.75;1.23;;;33.60;34.60;;;;;;5504065;25;20009;-75
2024/04/10 10:16:24;;;;;;;14.75;1.42;;;33.80;34.70;;;;;;5503974;25;20451;-76
2024/04/10 10:18:56;;;;;;;8.95;1.52;;;33.60;34.70;;;;;;5502098;26;20335;-76
2024/04/10 10:21:23;;;;;;;9.20;1.38;;;33.30;35.90;;;;;;5502225;25;20526;-74
2024/04/10 10:23:57;;;;;;;9.25;1.52;;;33.40;34.80;;;;;;5501888;26;20005;-73
2024/04/10 10:26:23;;;;;;;6.28;1.35;;;33.30;34.60;;;;;;5502107;25;20006;-73
2024/04/10 10:28:49;;;;;;;3.97;1.52;;;32.90;34.50;;;;;;5502155;26;20459;-73
2024/04/10 10:31:19;;;;;;;9.13;1.27;;;32.60;34.90;;;;;;5502114;25;20069;-73
2024/04/10 10:33:47;;;;;;;7.60;1.88;;;32.10;36.40;;;;;;5503825;25;20037;-73
2024/04/10 10:36:14;;;;;;;7.75;1.40;;;31.90;36.70;;;;;;5503874;25;20053;-75
2024/04/10 10:38:40;;;;;;;7.10;1.85;;;31.50;37.60;;;;;;5501778;26;20001;-76
2024/04/10 10:41:10;;;;;;;9.00;1.58;;;30.90;38.80;;;;;;5500621;25;20009;-76
2024/04/10 10:43:37;;;;;;;10.98;1.73;;;30.70;39.00;;;;;;5487599;26;20462;-76
2024/04/10 10:46:06;;;;;;;9.40;1.40;;;30.40;39.10;;;;;;5486164;26;20009;-75
2024/04/10 10:48:32;;;;;;;5.63;1.73;;;30.00;40.10;;;;;;5486104;26;20773;-74
2024/04/10 10:50:58;;;;;;;9.75;1.65;;;29.60;40.30;;;;;;5487997;26;20013;-76
2024/04/10 10:53:27;;;;;;;6.70;1.67;;;29.30;42.00;;;;;;5487745;26;19998;-76
2024/04/10 10:55:54;;;;;;;11.63;1.20;;;29.10;42.00;;;;;;5487785;26;20668;-76
2024/04/10 10:58:22;;;;;;;17.20;1.48;;;28.90;43.20;;;;;;5487895;26;19998;-76
2024/04/10 11:00:48;;;;;;;7.47;1.00;;;28.70;43.90;;;;;;5487954;26;20010;-76
2024/04/10 11:03:17;;;;;;;10.90;1.40;;;28.60;44.20;;;;;;5485788;26;20099;-73
2024/04/10 11:05:44;;;;;;;5.53;1.20;;;28.60;44.00;;;;;;5488189;26;20013;-73
2024/04/10 11:08:09;;;;;;;5.70;1.23;;;28.50;44.20;;;;;;5487703;26;20008;-74
2024/04/10 11:10:35;;;;;;;10.05;1.38;;;28.50;43.90;;;;;;5487812;26;20010;-76
2024/04/10 11:13:08;;;;;;;7.00;1.52;;;28.40;44.60;;;;;;5487586;26;20018;-73
2024/04/10 11:15:45;;;;;;;7.13;1.65;;;28.50;44.20;;;;;;5487705;26;20002;-73
2024/04/10 11:18:17;;;;;;;21.88;3.10;;;28.50;44.70;;;;;;5487821;26;20083;-73
2024/04/10 11:20:44;;;;;;;13.70;1.38;;;28.50;44.30;;;;;;5485629;26;20060;-73
2024/04/10 11:23:10;;;;;;;10.10;1.58;;;28.50;45.00;;;;;;5486163;26;19998;-74
2024/04/10 11:25:35;;;;;;;13.35;1.10;;;28.40;45.10;;;;;;5485726;26;20002;-74
2024/04/10 11:28:01;;;;;;;11.40;1.10;;;28.30;44.30;;;;;;5487687;26;20002;-74
2024/04/10 11:30:29;;;;;;;6.45;1.85;;;28.20;44.90;;;;;;5487152;26;19998;-74
2024/04/10 11:32:55;;;;;;;6.90;1.40;;;28.20;45.40;;;;;;5487279;26;19995;-73
2024/04/10 11:35:22;;;;;;;8.52;1.10;;;28.10;45.30;;;;;;5487286;26;20490;-74
2024/04/10 11:37:54;;;;;;;11.20;2.10;;;28.00;45.50;;;;;;5487265;26;20432;-74
2024/04/10 11:40:22;;;;;;;4.20;0.82;;;28.00;46.50;;;;;;5485349;26;20435;-72
2024/04/10 11:42:51;;;;;;;6.32;1.17;;;28.00;45.80;;;;;;5485285;26;20009;-74
2024/04/10 11:45:17;;;;;;;6.00;1.23;;;28.00;46.10;;;;;;5487104;26;20443;-73
2024/04/10 11:47:45;;;;;;;7.80;1.60;;;27.90;45.70;;;;;;5486926;26;20008;-73
2024/04/10 11:50:11;;;;;;;9.18;1.35;;;27.80;46.30;;;;;;5484955;26;20002;-73
2024/04/10 11:52:38;;;;;;;5.93;1.42;;;27.90;46.60;;;;;;5486872;26;20010;-74
2024/04/10 11:55:05;;;;;;;10.80;0.90;;;27.90;46.10;;;;;;5485145;26;20045;-73
2024/04/10 11:57:35;;;;;;;11.80;1.55;;;27.90;46.50;;;;;;5484347;26;20012;-73
2024/04/10 12:00:05;;;;;;;10.55;1.02;;;28.00;46.90;;;;;;5486992;26;20010;-73
2024/04/10 12:02:30;;;;;;;5.25;1.33;;;28.10;45.80;;;;;;5487004;26;20036;-73
2024/04/10 12:04:56;;;;;;;6.38;0.90;;;28.10;46.10;;;;;;5485014;26;20042;-74
2024/04/10 12:07:22;;;;;;;4.03;1.10;;;28.10;46.30;;;;;;5486873;26;20074;-74
2024/04/10 12:09:48;;;;;;;6.60;1.27;;;28.10;46.50;;;;;;5486582;26;20009;-74
2024/04/10 12:12:15;;;;;;;12.40;1.30;;;28.10;47.00;;;;;;5484696;26;20002;-73
2024/04/10 12:14:44;;;;;;;9.25;1.42;;;27.90;48.50;;;;;;5484473;26;20013;-74
2024/04/10 12:17:10;;;;;;;9.05;1.17;;;27.70;49.00;;;;;;5486460;26;19998;-74
2024/04/10 12:19:36;;;;;;;6.57;0.95;;;27.60;48.40;;;;;;5486384;26;19997;-73
2024/04/10 12:22:02;;;;;;;17.88;1.40;;;27.60;48.60;;;;;;5486893;26;19998;-74
2024/04/10 12:24:28;;;;;;;6.68;1.70;;;27.50;48.90;;;;;;5484396;26;20006;-73
2024/04/10 12:26:56;;;;;;;8.15;1.20;;;27.40;49.20;;;;;;5486383;26;20017;-73
2024/04/10 12:29:22;;;;;;;3.83;0.70;;;27.20;50.40;;;;;;5486219;26;20009;-74
2024/04/10 12:31:48;;;;;;;10.05;1.48;;;27.20;49.90;;;;;;5484154;26;20017;-72
2024/04/10 12:34:14;;;;;;;6.05;1.17;;;27.20;50.00;;;;;;5484206;26;20074;-73
2024/04/10 12:39:25;;;;;;;9.02;0.90;;;27.40;49.50;;;;;;5486099;26;20013;-74
2024/04/10 12:41:52;;;;;;;6.95;1.17;;;27.40;49.30;;;;;;5486198;26;19994;-74
2024/04/10 12:44:18;;;;;;;6.35;0.90;;;27.40;49.00;;;;;;5486196;26;20078;-74
2024/04/10 12:46:45;;;;;;;3.10;0.70;;;27.50;48.90;;;;;;5486176;26;19998;-74
2024/04/10 12:49:11;;;;;;;2.97;0.85;;;27.40;49.30;;;;;;5486288;26;20008;-74
2024/04/10 12:51:37;;;;;;;5.18;1.33;;;27.40;50.10;;;;;;5485942;26;19998;-74
2024/04/10 12:54:03;;;;;;;12.50;1.40;;;27.50;49.60;;;;;;5485731;26;20002;-74